UPS1029 KSDF-PANC
Flight info
| Callsign | UPS1029 |
|---|---|
| Flight time | N/A |
| Altitude | 36000 |
| Route | RDHSE1 JIBKA MZV CID KP78G ABR ISN ITREK YEGGA/N0489F380 YXJ GOROV COHIL REMBY PTERS3 |
| Aircraft | B744/H-SDE3FGHIM1M2RWXY/LB1 |
Departure
| Time | 2026-05-06 06:23 |
|---|---|
| Airport | Louisville Muhammad Ali International Airport (KSDF) |
Arrival
| Time | N/A |
|---|---|
| Airport | Ted Stevens Anchorage International Airport (PANC) |
| Time | Latitude | Longitude | Altitude | Speed | Heading |
|---|---|---|---|---|---|
| 2026-05-06 06:01 | 38.16324 | -85.73388 | 482 ft | 0 kts | 1° |
| 2026-05-06 06:03 | 38.16316 | -85.73389 | 473 ft | 4 kts | 349° |
| 2026-05-06 06:03 | 38.16306 | -85.73382 | 473 ft | 4 kts | 260° |
| 2026-05-06 06:03 | 38.16307 | -85.73353 | 473 ft | 2 kts | 291° |
| 2026-05-06 06:03 | 38.16306 | -85.73353 | 473 ft | 2 kts | 291° |
| 2026-05-06 06:09 | 38.16307 | -85.73353 | 482 ft | 0 kts | 291° |
| 2026-05-06 06:10 | 38.16308 | -85.73357 | 482 ft | 1 kts | 289° |
| 2026-05-06 06:10 | 38.16315 | -85.73382 | 473 ft | 5 kts | 290° |
| 2026-05-06 06:10 | 38.16330 | -85.73433 | 474 ft | 8 kts | 290° |
| 2026-05-06 06:10 | 38.16352 | -85.73508 | 474 ft | 11 kts | 291° |
| 2026-05-06 06:11 | 38.16389 | -85.73597 | 471 ft | 12 kts | 312° |
| 2026-05-06 06:11 | 38.16455 | -85.73664 | 473 ft | 12 kts | 323° |
| 2026-05-06 06:11 | 38.16496 | -85.73727 | 473 ft | 8 kts | 298° |
| 2026-05-06 06:11 | 38.16519 | -85.73789 | 475 ft | 8 kts | 291° |
| 2026-05-06 06:12 | 38.16539 | -85.73854 | 476 ft | 8 kts | 292° |
| 2026-05-06 06:12 | 38.16549 | -85.73912 | 476 ft | 5 kts | 266° |
| 2026-05-06 06:12 | 38.16549 | -85.73931 | 478 ft | 1 kts | 277° |
| 2026-05-06 06:12 | 38.16550 | -85.73936 | 478 ft | 0 kts | 278° |
| 2026-05-06 06:13 | 38.16550 | -85.73941 | 478 ft | 1 kts | 268° |
| 2026-05-06 06:13 | 38.16545 | -85.73953 | 479 ft | 3 kts | 243° |
| 2026-05-06 06:13 | 38.16522 | -85.73985 | 480 ft | 4 kts | 211° |
| 2026-05-06 06:14 | 38.16485 | -85.73985 | 478 ft | 8 kts | 165° |
| 2026-05-06 06:14 | 38.16410 | -85.73960 | 478 ft | 14 kts | 166° |
| 2026-05-06 06:14 | 38.16293 | -85.73921 | 477 ft | 21 kts | 166° |
| 2026-05-06 06:14 | 38.16131 | -85.73874 | 472 ft | 26 kts | 167° |
| 2026-05-06 06:15 | 38.15985 | -85.73829 | 478 ft | 0 kts | 166° |
| 2026-05-06 06:16 | 38.15980 | -85.73827 | 478 ft | 1 kts | 163° |
| 2026-05-06 06:16 | 38.15978 | -85.73825 | 478 ft | 0 kts | 158° |
| 2026-05-06 06:16 | 38.15975 | -85.73824 | 478 ft | 2 kts | 158° |
| 2026-05-06 06:16 | 38.15967 | -85.73819 | 473 ft | 1 kts | 157° |
| 2026-05-06 06:17 | 38.15942 | -85.73806 | 475 ft | 3 kts | 157° |
| 2026-05-06 06:17 | 38.15939 | -85.73805 | 475 ft | 2 kts | 158° |
| 2026-05-06 06:17 | 38.15911 | -85.73800 | 477 ft | 7 kts | 177° |
| 2026-05-06 06:17 | 38.15861 | -85.73828 | 472 ft | 9 kts | 227° |
| 2026-05-06 06:18 | 38.15851 | -85.73907 | 475 ft | 8 kts | 292° |
| 2026-05-06 06:18 | 38.15889 | -85.73940 | 473 ft | 8 kts | 338° |
| 2026-05-06 06:18 | 38.15900 | -85.73945 | 473 ft | 0 kts | 339° |
| 2026-05-06 06:22 | 38.15997 | -85.73985 | 474 ft | 49 kts | 343° |
| 2026-05-06 06:22 | 38.16578 | -85.74190 | 485 ft | 119 kts | 345° |
| 2026-05-06 06:23 | 38.17558 | -85.74520 | 508 ft | 169 kts | 344° |
| 2026-05-06 06:23 | 38.18746 | -85.74915 | 951 ft | 186 kts | 346° |
| 2026-05-06 06:23 | 38.20048 | -85.75337 | 1565 ft | 203 kts | 346° |
| 2026-05-06 06:23 | 38.21411 | -85.76031 | 2336 ft | 221 kts | 331° |
| 2026-05-06 06:24 | 38.22801 | -85.77186 | 3037 ft | 236 kts | 322° |
| 2026-05-06 06:24 | 38.24107 | -85.78347 | 4487 ft | 236 kts | 324° |
| 2026-05-06 06:24 | 38.25617 | -85.79373 | 5279 ft | 254 kts | 325° |
| 2026-05-06 06:24 | 38.27217 | -85.80477 | 6089 ft | 268 kts | 321° |
| 2026-05-06 06:25 | 38.28819 | -85.81708 | 7046 ft | 268 kts | 313° |
| 2026-05-06 06:25 | 38.30218 | -85.83245 | 8037 ft | 266 kts | 309° |
| 2026-05-06 06:25 | 38.33022 | -85.86379 | 10080 ft | 271 kts | 310° |
| 2026-05-06 06:26 | 38.34469 | -85.87982 | 10820 ft | 282 kts | 310° |
| 2026-05-06 06:26 | 38.35988 | -85.89679 | 11369 ft | 299 kts | 310° |
| 2026-05-06 06:26 | 38.37606 | -85.91481 | 11869 ft | 318 kts | 311° |
| 2026-05-06 06:26 | 38.39327 | -85.93391 | 12337 ft | 338 kts | 311° |
| 2026-05-06 06:27 | 38.41151 | -85.95416 | 12808 ft | 357 kts | 312° |
| 2026-05-06 06:27 | 38.43072 | -85.97555 | 13259 ft | 377 kts | 312° |
| 2026-05-06 06:27 | 38.45087 | -85.99797 | 13951 ft | 390 kts | 312° |
| 2026-05-06 06:27 | 38.47152 | -86.02093 | 14748 ft | 397 kts | 312° |
| 2026-05-06 06:28 | 38.49252 | -86.04434 | 15615 ft | 403 kts | 312° |
| 2026-05-06 06:28 | 38.51349 | -86.06778 | 16450 ft | 409 kts | 312° |
| 2026-05-06 06:28 | 38.53502 | -86.09186 | 17298 ft | 414 kts | 312° |
| 2026-05-06 06:28 | 38.55684 | -86.11624 | 18134 ft | 419 kts | 312° |
| 2026-05-06 06:29 | 38.57841 | -86.14142 | 18860 ft | 421 kts | 310° |
| 2026-05-06 06:29 | 38.59995 | -86.16703 | 19626 ft | 426 kts | 310° |
| 2026-05-06 06:29 | 38.62184 | -86.19279 | 20308 ft | 431 kts | 310° |
| 2026-05-06 06:29 | 38.64394 | -86.21900 | 20980 ft | 435 kts | 309° |
| 2026-05-06 06:30 | 38.66622 | -86.24558 | 21669 ft | 439 kts | 309° |
| 2026-05-06 06:30 | 38.68865 | -86.27235 | 22355 ft | 443 kts | 309° |
| 2026-05-06 06:30 | 38.71131 | -86.29931 | 23041 ft | 446 kts | 309° |
| 2026-05-06 06:30 | 38.73407 | -86.32643 | 23652 ft | 449 kts | 309° |
| 2026-05-06 06:31 | 38.75700 | -86.35380 | 24225 ft | 452 kts | 309° |
| 2026-05-06 06:31 | 38.78002 | -86.38132 | 24800 ft | 453 kts | 309° |
| 2026-05-06 06:31 | 38.80312 | -86.40894 | 25381 ft | 455 kts | 309° |
| 2026-05-06 06:31 | 38.82627 | -86.43664 | 25960 ft | 456 kts | 309° |
| 2026-05-06 06:32 | 38.84941 | -86.46446 | 26551 ft | 456 kts | 308° |
| 2026-05-06 06:32 | 38.87235 | -86.49266 | 27100 ft | 457 kts | 308° |
| 2026-05-06 06:32 | 38.89528 | -86.52102 | 27662 ft | 458 kts | 308° |
| 2026-05-06 06:32 | 38.91833 | -86.54924 | 28314 ft | 457 kts | 308° |
| 2026-05-06 06:33 | 38.94124 | -86.57708 | 29341 ft | 449 kts | 308° |
| 2026-05-06 06:33 | 38.96367 | -86.60458 | 30339 ft | 442 kts | 307° |
| 2026-05-06 06:33 | 38.98568 | -86.63178 | 31205 ft | 436 kts | 307° |
| 2026-05-06 06:33 | 39.00741 | -86.65856 | 32020 ft | 431 kts | 307° |
| 2026-05-06 06:34 | 39.02901 | -86.68509 | 32820 ft | 427 kts | 306° |
| 2026-05-06 06:34 | 39.05039 | -86.71140 | 33594 ft | 423 kts | 306° |
| 2026-05-06 06:34 | 39.07127 | -86.73718 | 34282 ft | 420 kts | 306° |
| 2026-05-06 06:34 | 39.09252 | -86.76343 | 34996 ft | 416 kts | 306° |
| 2026-05-06 06:35 | 39.11322 | -86.78898 | 35612 ft | 409 kts | 305° |
| 2026-05-06 06:35 | 39.13335 | -86.81383 | 35883 ft | 404 kts | 305° |
| 2026-05-06 06:35 | 39.15358 | -86.83894 | 35886 ft | 403 kts | 305° |
| 2026-05-06 06:36 | 39.19381 | -86.88881 | 35889 ft | 400 kts | 305° |
| 2026-05-06 06:36 | 39.23382 | -86.93846 | 35888 ft | 399 kts | 304° |
| 2026-05-06 06:37 | 39.27373 | -86.98809 | 35893 ft | 399 kts | 304° |
| 2026-05-06 06:37 | 39.31366 | -87.03780 | 35891 ft | 399 kts | 304° |
| 2026-05-06 06:38 | 39.35351 | -87.08750 | 35899 ft | 398 kts | 304° |
| 2026-05-06 06:38 | 39.39332 | -87.13727 | 35911 ft | 398 kts | 304° |
| 2026-05-06 06:39 | 39.43298 | -87.18689 | 35913 ft | 398 kts | 304° |
| 2026-05-06 06:39 | 39.47270 | -87.23668 | 35948 ft | 398 kts | 304° |
| 2026-05-06 06:40 | 39.51040 | -87.28822 | 35952 ft | 388 kts | 297° |
| 2026-05-06 06:40 | 39.54227 | -87.34404 | 35951 ft | 386 kts | 296° |
| 2026-05-06 06:41 | 39.57401 | -87.39974 | 35945 ft | 383 kts | 295° |
| 2026-05-06 06:41 | 39.60559 | -87.45552 | 35909 ft | 384 kts | 296° |
| 2026-05-06 06:42 | 39.63708 | -87.51107 | 35903 ft | 384 kts | 295° |
| 2026-05-06 06:42 | 39.66010 | -87.55181 | 35898 ft | 384 kts | 295° |
| 2026-05-06 06:43 | 39.69114 | -87.60678 | 35895 ft | 384 kts | 295° |
| 2026-05-06 06:43 | 39.72269 | -87.66277 | 35896 ft | 384 kts | 295° |
| 2026-05-06 06:44 | 39.75417 | -87.71873 | 35914 ft | 384 kts | 295° |
| 2026-05-06 06:44 | 39.78552 | -87.77453 | 35963 ft | 381 kts | 295° |
| 2026-05-06 06:45 | 39.81649 | -87.82981 | 35901 ft | 380 kts | 296° |
| 2026-05-06 06:45 | 39.84764 | -87.88547 | 35911 ft | 380 kts | 296° |
| 2026-05-06 06:46 | 39.87873 | -87.94114 | 35919 ft | 380 kts | 296° |
| 2026-05-06 06:46 | 39.90983 | -87.99691 | 35932 ft | 380 kts | 296° |
| 2026-05-06 06:47 | 39.94012 | -88.05132 | 35933 ft | 380 kts | 296° |
| 2026-05-06 06:47 | 39.97116 | -88.10718 | 35935 ft | 381 kts | 295° |
| 2026-05-06 06:48 | 40.00221 | -88.16317 | 35936 ft | 381 kts | 295° |
| 2026-05-06 06:48 | 40.03328 | -88.21928 | 35921 ft | 381 kts | 295° |
| 2026-05-06 06:49 | 40.06429 | -88.27537 | 35922 ft | 381 kts | 295° |
| 2026-05-06 06:49 | 40.09535 | -88.33166 | 35929 ft | 381 kts | 295° |
| 2026-05-06 06:50 | 40.12633 | -88.38791 | 35932 ft | 381 kts | 295° |
| 2026-05-06 06:50 | 40.15731 | -88.44426 | 35933 ft | 382 kts | 295° |
| 2026-05-06 06:51 | 40.18826 | -88.50066 | 35948 ft | 381 kts | 295° |
| 2026-05-06 06:51 | 40.21890 | -88.55661 | 35947 ft | 381 kts | 295° |
| 2026-05-06 06:52 | 40.24995 | -88.61336 | 35971 ft | 382 kts | 295° |
| 2026-05-06 06:52 | 40.28067 | -88.66967 | 35945 ft | 383 kts | 295° |
| 2026-05-06 06:53 | 40.31166 | -88.72653 | 35949 ft | 383 kts | 295° |
| 2026-05-06 06:53 | 40.34261 | -88.78344 | 35951 ft | 383 kts | 295° |
| 2026-05-06 06:54 | 40.37350 | -88.84035 | 35954 ft | 383 kts | 295° |
| 2026-05-06 06:54 | 40.40441 | -88.89737 | 35949 ft | 383 kts | 295° |
| 2026-05-06 06:55 | 40.43530 | -88.95449 | 35952 ft | 384 kts | 295° |
| 2026-05-06 06:55 | 40.46615 | -89.01163 | 35952 ft | 384 kts | 295° |
| 2026-05-06 06:56 | 40.49704 | -89.06897 | 35945 ft | 385 kts | 295° |
| 2026-05-06 06:56 | 40.52776 | -89.12606 | 35941 ft | 385 kts | 295° |
| 2026-05-06 06:57 | 40.55814 | -89.18264 | 35941 ft | 385 kts | 295° |
| 2026-05-06 06:57 | 40.58875 | -89.23975 | 35961 ft | 385 kts | 294° |
| 2026-05-06 06:58 | 40.61953 | -89.29728 | 35937 ft | 384 kts | 294° |
| 2026-05-06 06:58 | 40.65027 | -89.35486 | 35939 ft | 384 kts | 294° |
| 2026-05-06 06:59 | 40.68098 | -89.41247 | 35939 ft | 384 kts | 294° |
| 2026-05-06 06:59 | 40.71165 | -89.47013 | 35942 ft | 384 kts | 294° |
| 2026-05-06 07:00 | 40.74228 | -89.52780 | 35944 ft | 384 kts | 294° |
| 2026-05-06 07:00 | 40.77289 | -89.58554 | 35940 ft | 384 kts | 294° |
| 2026-05-06 07:01 | 40.80347 | -89.64336 | 35943 ft | 384 kts | 294° |
| 2026-05-06 07:01 | 40.83403 | -89.70122 | 35942 ft | 384 kts | 294° |
| 2026-05-06 07:02 | 40.86452 | -89.75906 | 35945 ft | 384 kts | 294° |
| 2026-05-06 07:02 | 40.89479 | -89.81660 | 35945 ft | 384 kts | 294° |
| 2026-05-06 07:03 | 40.92525 | -89.87463 | 35948 ft | 385 kts | 294° |
| 2026-05-06 07:03 | 40.95578 | -89.93286 | 35948 ft | 386 kts | 294° |
| 2026-05-06 07:04 | 40.98635 | -89.99128 | 35959 ft | 386 kts | 294° |
| 2026-05-06 07:04 | 41.01688 | -90.04977 | 35959 ft | 386 kts | 294° |
| 2026-05-06 07:05 | 41.04666 | -90.10690 | 35946 ft | 386 kts | 294° |
| 2026-05-06 07:05 | 41.07716 | -90.16553 | 35956 ft | 386 kts | 294° |
| 2026-05-06 07:06 | 41.10763 | -90.22421 | 35954 ft | 386 kts | 294° |
| 2026-05-06 07:06 | 41.13806 | -90.28297 | 35977 ft | 389 kts | 294° |
| 2026-05-06 07:07 | 41.16884 | -90.34242 | 35971 ft | 390 kts | 295° |
| 2026-05-06 07:07 | 41.19940 | -90.40162 | 35960 ft | 389 kts | 294° |
| 2026-05-06 07:08 | 41.22992 | -90.46089 | 35963 ft | 389 kts | 294° |
| 2026-05-06 07:08 | 41.26044 | -90.52023 | 35968 ft | 389 kts | 294° |
| 2026-05-06 07:09 | 41.29093 | -90.57963 | 35972 ft | 389 kts | 294° |
| 2026-05-06 07:09 | 41.32137 | -90.63904 | 35972 ft | 389 kts | 294° |
| 2026-05-06 07:10 | 41.35073 | -90.69745 | 36000 ft | 390 kts | 294° |
| 2026-05-06 07:10 | 41.38110 | -90.75810 | 35974 ft | 397 kts | 295° |
| 2026-05-06 07:11 | 41.41173 | -90.81914 | 35971 ft | 396 kts | 294° |
| 2026-05-06 07:11 | 41.44219 | -90.88021 | 35969 ft | 396 kts | 294° |
| 2026-05-06 07:12 | 41.47272 | -90.94137 | 35994 ft | 396 kts | 294° |
| 2026-05-06 07:12 | 41.50317 | -91.00259 | 35972 ft | 396 kts | 294° |
| 2026-05-06 07:13 | 41.53357 | -91.06378 | 35982 ft | 396 kts | 294° |
| 2026-05-06 07:13 | 41.56400 | -91.12520 | 35991 ft | 399 kts | 295° |
| 2026-05-06 07:14 | 41.59496 | -91.18780 | 35998 ft | 405 kts | 295° |
| 2026-05-06 07:14 | 41.62075 | -91.23997 | 36005 ft | 405 kts | 295° |
| 2026-05-06 07:15 | 41.65173 | -91.30288 | 36011 ft | 405 kts | 295° |
| 2026-05-06 07:15 | 41.68271 | -91.36586 | 36014 ft | 405 kts | 295° |
| 2026-05-06 07:16 | 41.71365 | -91.42892 | 36018 ft | 405 kts | 295° |
| 2026-05-06 07:16 | 41.74453 | -91.49197 | 36017 ft | 405 kts | 295° |
| 2026-05-06 07:17 | 41.77547 | -91.55533 | 36022 ft | 411 kts | 295° |
| 2026-05-06 07:17 | 41.80680 | -91.61949 | 35996 ft | 411 kts | 295° |
| 2026-05-06 07:18 | 41.83801 | -91.68365 | 36004 ft | 411 kts | 295° |
| 2026-05-06 07:18 | 41.86923 | -91.74794 | 35998 ft | 411 kts | 295° |
| 2026-05-06 07:19 | 41.90114 | -91.81180 | 35981 ft | 413 kts | 297° |
| 2026-05-06 07:19 | 41.93399 | -91.87497 | 35995 ft | 413 kts | 296° |
| 2026-05-06 07:20 | 41.96667 | -91.93798 | 36000 ft | 416 kts | 297° |
| 2026-05-06 07:20 | 41.99982 | -92.00194 | 36004 ft | 418 kts | 297° |
| 2026-05-06 07:21 | 42.03304 | -92.06621 | 36007 ft | 418 kts | 297° |
| 2026-05-06 07:21 | 42.06622 | -92.13055 | 36007 ft | 418 kts | 297° |
| 2026-05-06 07:22 | 42.09938 | -92.19497 | 36016 ft | 418 kts | 297° |
| 2026-05-06 07:22 | 42.13246 | -92.25939 | 36017 ft | 418 kts | 297° |
| 2026-05-06 07:23 | 42.16555 | -92.32396 | 36017 ft | 419 kts | 297° |
| 2026-05-06 07:23 | 42.19852 | -92.38845 | 36022 ft | 421 kts | 297° |
| 2026-05-06 07:24 | 42.23171 | -92.45347 | 36027 ft | 421 kts | 297° |
| 2026-05-06 07:24 | 42.26490 | -92.51866 | 36027 ft | 421 kts | 297° |
| 2026-05-06 07:25 | 42.29801 | -92.58383 | 36026 ft | 421 kts | 297° |
| 2026-05-06 07:25 | 42.33112 | -92.64914 | 36026 ft | 421 kts | 297° |
| 2026-05-06 07:26 | 42.36417 | -92.71446 | 36019 ft | 422 kts | 297° |
| 2026-05-06 07:26 | 42.39732 | -92.78016 | 36028 ft | 424 kts | 297° |
| 2026-05-06 07:27 | 42.43054 | -92.84608 | 36032 ft | 424 kts | 297° |
| 2026-05-06 07:27 | 42.46365 | -92.91199 | 36039 ft | 424 kts | 297° |
| 2026-05-06 07:28 | 42.49677 | -92.97803 | 36038 ft | 424 kts | 297° |
| 2026-05-06 07:28 | 42.54616 | -93.07679 | 36043 ft | 424 kts | 297° |
| 2026-05-06 07:29 | 42.57922 | -93.14308 | 36043 ft | 425 kts | 297° |
| 2026-05-06 07:29 | 42.61228 | -93.20953 | 36041 ft | 425 kts | 297° |
| 2026-05-06 07:30 | 42.64532 | -93.27606 | 36040 ft | 425 kts | 297° |
| 2026-05-06 07:30 | 42.67829 | -93.34261 | 36041 ft | 425 kts | 297° |
| 2026-05-06 07:31 | 42.71126 | -93.40932 | 36037 ft | 425 kts | 297° |
| 2026-05-06 07:31 | 42.74418 | -93.47608 | 36045 ft | 425 kts | 297° |
| 2026-05-06 07:32 | 42.77707 | -93.54291 | 36043 ft | 425 kts | 297° |
| 2026-05-06 07:32 | 42.80965 | -93.60928 | 36050 ft | 425 kts | 297° |
| 2026-05-06 07:33 | 42.84244 | -93.67621 | 36049 ft | 425 kts | 297° |
| 2026-05-06 07:33 | 42.87519 | -93.74322 | 36052 ft | 425 kts | 296° |
| 2026-05-06 07:34 | 42.90791 | -93.81031 | 36065 ft | 425 kts | 297° |
| 2026-05-06 07:34 | 42.94056 | -93.87739 | 36063 ft | 424 kts | 296° |
| 2026-05-06 07:35 | 42.97309 | -93.94443 | 36050 ft | 423 kts | 297° |
| 2026-05-06 07:35 | 43.00547 | -94.00922 | 36052 ft | 428 kts | 302° |
| 2026-05-06 07:36 | 43.04315 | -94.07239 | 36050 ft | 428 kts | 302° |
| 2026-05-06 07:36 | 43.08069 | -94.13573 | 36037 ft | 429 kts | 302° |
| 2026-05-06 07:37 | 43.11826 | -94.19906 | 36046 ft | 428 kts | 302° |
| 2026-05-06 07:37 | 43.15553 | -94.26215 | 36056 ft | 429 kts | 302° |
| 2026-05-06 07:38 | 43.19307 | -94.32574 | 36036 ft | 430 kts | 302° |
| 2026-05-06 07:38 | 43.23060 | -94.38949 | 36047 ft | 429 kts | 302° |
| 2026-05-06 07:39 | 43.26806 | -94.45325 | 36057 ft | 429 kts | 302° |
| 2026-05-06 07:39 | 43.30552 | -94.51716 | 36069 ft | 429 kts | 302° |
| 2026-05-06 07:40 | 43.34290 | -94.58108 | 36112 ft | 430 kts | 302° |
| 2026-05-06 07:40 | 43.38045 | -94.64541 | 36077 ft | 432 kts | 302° |
| 2026-05-06 07:41 | 43.41794 | -94.70980 | 36052 ft | 431 kts | 302° |
| 2026-05-06 07:41 | 43.45453 | -94.77276 | 36052 ft | 432 kts | 302° |
| 2026-05-06 07:42 | 43.49199 | -94.83737 | 36052 ft | 431 kts | 302° |
| 2026-05-06 07:42 | 43.52915 | -94.90160 | 36096 ft | 431 kts | 302° |
| 2026-05-06 07:43 | 43.56671 | -94.96669 | 36068 ft | 434 kts | 302° |
| 2026-05-06 07:43 | 43.60438 | -95.03207 | 36056 ft | 435 kts | 302° |
| 2026-05-06 07:44 | 43.64192 | -95.09740 | 36053 ft | 433 kts | 302° |
| 2026-05-06 07:44 | 43.67932 | -95.16264 | 36057 ft | 433 kts | 302° |
| 2026-05-06 07:45 | 43.71665 | -95.22789 | 36094 ft | 433 kts | 302° |
| 2026-05-06 07:45 | 43.75417 | -95.29365 | 36078 ft | 437 kts | 302° |
| 2026-05-06 07:46 | 43.79176 | -95.35964 | 36082 ft | 438 kts | 302° |
| 2026-05-06 07:46 | 43.82949 | -95.42602 | 36083 ft | 439 kts | 302° |
| 2026-05-06 07:47 | 43.86717 | -95.49249 | 36087 ft | 439 kts | 302° |
| 2026-05-06 07:47 | 43.90484 | -95.55911 | 36070 ft | 440 kts | 302° |
| 2026-05-06 07:48 | 43.94237 | -95.62558 | 36058 ft | 441 kts | 302° |
| 2026-05-06 07:48 | 43.98008 | -95.69255 | 36066 ft | 440 kts | 302° |
| 2026-05-06 07:49 | 44.01781 | -95.75974 | 36065 ft | 441 kts | 302° |
| 2026-05-06 07:49 | 44.05552 | -95.82701 | 36066 ft | 441 kts | 302° |
| 2026-05-06 07:50 | 44.09319 | -95.89441 | 36074 ft | 442 kts | 302° |
| 2026-05-06 07:50 | 44.13004 | -95.96044 | 36091 ft | 443 kts | 302° |
| 2026-05-06 07:51 | 44.16781 | -96.02831 | 36098 ft | 443 kts | 302° |
| 2026-05-06 07:51 | 44.20553 | -96.09625 | 36104 ft | 444 kts | 302° |
| 2026-05-06 07:52 | 44.24333 | -96.16448 | 36113 ft | 444 kts | 302° |
| 2026-05-06 07:52 | 44.28115 | -96.23292 | 36112 ft | 446 kts | 303° |
| 2026-05-06 07:53 | 44.31902 | -96.30159 | 36124 ft | 447 kts | 303° |
| 2026-05-06 07:53 | 44.35689 | -96.37046 | 36124 ft | 447 kts | 303° |
| 2026-05-06 07:54 | 44.39473 | -96.43942 | 36125 ft | 447 kts | 303° |
| 2026-05-06 07:54 | 44.43225 | -96.50798 | 36145 ft | 448 kts | 303° |
| 2026-05-06 07:55 | 44.47018 | -96.57741 | 36111 ft | 449 kts | 303° |
| 2026-05-06 07:55 | 44.50806 | -96.64694 | 36108 ft | 449 kts | 303° |
| 2026-05-06 07:56 | 44.54593 | -96.71663 | 36109 ft | 449 kts | 303° |
| 2026-05-06 07:56 | 44.58373 | -96.78634 | 36114 ft | 449 kts | 303° |
| 2026-05-06 07:57 | 44.62151 | -96.85622 | 36110 ft | 449 kts | 303° |
| 2026-05-06 07:57 | 44.65928 | -96.92619 | 36108 ft | 450 kts | 303° |
| 2026-05-06 07:58 | 44.69697 | -96.99623 | 36089 ft | 450 kts | 303° |
| 2026-05-06 07:58 | 44.73466 | -97.06642 | 36079 ft | 450 kts | 303° |
| 2026-05-06 07:59 | 44.77231 | -97.13672 | 36087 ft | 450 kts | 303° |
| 2026-05-06 07:59 | 44.80997 | -97.20721 | 36063 ft | 452 kts | 303° |
| 2026-05-06 08:00 | 44.84765 | -97.27790 | 36067 ft | 452 kts | 303° |
| 2026-05-06 08:00 | 44.88509 | -97.34833 | 36069 ft | 452 kts | 303° |
| 2026-05-06 08:01 | 44.92300 | -97.41981 | 36072 ft | 452 kts | 303° |
| 2026-05-06 08:01 | 44.96033 | -97.49039 | 36089 ft | 452 kts | 303° |
| 2026-05-06 08:02 | 44.99798 | -97.56170 | 36111 ft | 453 kts | 303° |
| 2026-05-06 08:02 | 45.03560 | -97.63318 | 36108 ft | 453 kts | 303° |
| 2026-05-06 08:03 | 45.07318 | -97.70474 | 36112 ft | 452 kts | 303° |
| 2026-05-06 08:03 | 45.11065 | -97.77627 | 36113 ft | 453 kts | 303° |
| 2026-05-06 08:04 | 45.14815 | -97.84806 | 36116 ft | 453 kts | 303° |
| 2026-05-06 08:04 | 45.18566 | -97.92001 | 36120 ft | 454 kts | 303° |
| 2026-05-06 08:05 | 45.22315 | -97.99216 | 36124 ft | 454 kts | 303° |
| 2026-05-06 08:05 | 45.26032 | -98.06382 | 36119 ft | 454 kts | 303° |
| 2026-05-06 08:06 | 45.29773 | -98.13616 | 36109 ft | 455 kts | 304° |
| 2026-05-06 08:06 | 45.33513 | -98.20865 | 36099 ft | 455 kts | 304° |
| 2026-05-06 08:07 | 45.37254 | -98.28134 | 36093 ft | 455 kts | 303° |
| 2026-05-06 08:07 | 45.40986 | -98.35406 | 36089 ft | 455 kts | 303° |
| 2026-05-06 08:08 | 45.44864 | -98.42267 | 36101 ft | 456 kts | 307° |
| 2026-05-06 08:08 | 45.48904 | -98.49266 | 36126 ft | 458 kts | 307° |
| 2026-05-06 08:09 | 45.52954 | -98.56289 | 36131 ft | 458 kts | 307° |
| 2026-05-06 08:09 | 45.56972 | -98.63280 | 36121 ft | 458 kts | 307° |
| 2026-05-06 08:10 | 45.61012 | -98.70323 | 36121 ft | 459 kts | 307° |
| 2026-05-06 08:10 | 45.65050 | -98.77384 | 36132 ft | 460 kts | 307° |
| 2026-05-06 08:11 | 45.68410 | -98.83270 | 36131 ft | 459 kts | 307° |
| 2026-05-06 08:11 | 45.72440 | -98.90348 | 36128 ft | 458 kts | 307° |
| 2026-05-06 08:12 | 45.76458 | -98.97422 | 36125 ft | 458 kts | 307° |
| 2026-05-06 08:12 | 45.80467 | -99.04498 | 36130 ft | 458 kts | 307° |
| 2026-05-06 08:13 | 45.84495 | -99.11629 | 36124 ft | 461 kts | 308° |
| 2026-05-06 08:13 | 45.88524 | -99.18773 | 36126 ft | 459 kts | 308° |
| 2026-05-06 08:14 | 45.92530 | -99.25902 | 36128 ft | 458 kts | 308° |
| 2026-05-06 08:14 | 45.96527 | -99.33027 | 36125 ft | 457 kts | 308° |
| 2026-05-06 08:15 | 46.00485 | -99.40109 | 36139 ft | 458 kts | 308° |
| 2026-05-06 08:15 | 46.04476 | -99.47255 | 36137 ft | 458 kts | 308° |
| 2026-05-06 08:16 | 46.08455 | -99.54408 | 36134 ft | 458 kts | 308° |
| 2026-05-06 08:16 | 46.12439 | -99.61587 | 36130 ft | 459 kts | 308° |
| 2026-05-06 08:17 | 46.16421 | -99.68778 | 36137 ft | 459 kts | 308° |
| 2026-05-06 08:17 | 46.20405 | -99.75991 | 36137 ft | 460 kts | 308° |
| 2026-05-06 08:18 | 46.24386 | -99.83220 | 36139 ft | 460 kts | 308° |
| 2026-05-06 08:18 | 46.28362 | -99.90457 | 36139 ft | 460 kts | 308° |
| 2026-05-06 08:19 | 46.32308 | -99.97658 | 36141 ft | 459 kts | 308° |
| 2026-05-06 08:19 | 46.36298 | -100.04959 | 36140 ft | 459 kts | 308° |
| 2026-05-06 08:20 | 46.40235 | -100.12182 | 36132 ft | 460 kts | 308° |
| 2026-05-06 08:20 | 46.44189 | -100.19455 | 36131 ft | 460 kts | 308° |
| 2026-05-06 08:21 | 46.48143 | -100.26747 | 36132 ft | 460 kts | 308° |
| 2026-05-06 08:21 | 46.51993 | -100.33867 | 36142 ft | 460 kts | 308° |
| 2026-05-06 08:22 | 46.55937 | -100.41177 | 36140 ft | 460 kts | 308° |
| 2026-05-06 08:22 | 46.59876 | -100.48499 | 36133 ft | 460 kts | 308° |
| 2026-05-06 08:23 | 46.63815 | -100.55839 | 36126 ft | 460 kts | 308° |
| 2026-05-06 08:23 | 46.67746 | -100.63185 | 36110 ft | 460 kts | 308° |
| 2026-05-06 08:24 | 46.71672 | -100.70539 | 36115 ft | 459 kts | 309° |
| 2026-05-06 08:24 | 46.75563 | -100.77848 | 36115 ft | 459 kts | 309° |
| 2026-05-06 08:25 | 46.79474 | -100.85215 | 36115 ft | 459 kts | 309° |
| 2026-05-06 08:25 | 46.83382 | -100.92595 | 36123 ft | 459 kts | 308° |
| 2026-05-06 08:26 | 46.87281 | -100.99979 | 36138 ft | 459 kts | 309° |
| 2026-05-06 08:26 | 46.91177 | -101.07375 | 36147 ft | 459 kts | 309° |
| 2026-05-06 08:27 | 46.95067 | -101.14781 | 36151 ft | 460 kts | 309° |
| 2026-05-06 08:27 | 46.98958 | -101.22206 | 36148 ft | 459 kts | 309° |
| 2026-05-06 08:28 | 47.02842 | -101.29640 | 36151 ft | 459 kts | 309° |
| 2026-05-06 08:28 | 47.06722 | -101.37086 | 36159 ft | 460 kts | 309° |
| 2026-05-06 08:29 | 47.10598 | -101.44545 | 36154 ft | 459 kts | 309° |
| 2026-05-06 08:29 | 47.14443 | -101.51965 | 36137 ft | 459 kts | 309° |
| 2026-05-06 08:30 | 47.18310 | -101.59445 | 36130 ft | 459 kts | 309° |
| 2026-05-06 08:30 | 47.22174 | -101.66943 | 36130 ft | 462 kts | 309° |
| 2026-05-06 08:31 | 47.26045 | -101.74471 | 36130 ft | 461 kts | 309° |
| 2026-05-06 08:31 | 47.29903 | -101.81999 | 36134 ft | 460 kts | 309° |
| 2026-05-06 08:32 | 47.33756 | -101.89533 | 36134 ft | 460 kts | 309° |
| 2026-05-06 08:32 | 47.37605 | -101.97083 | 36139 ft | 460 kts | 309° |
| 2026-05-06 08:33 | 47.41448 | -102.04640 | 36145 ft | 460 kts | 309° |
| 2026-05-06 08:33 | 47.45255 | -102.12148 | 36147 ft | 460 kts | 309° |
| 2026-05-06 08:34 | 47.51002 | -102.23521 | 36151 ft | 460 kts | 309° |
| 2026-05-06 08:35 | 47.54829 | -102.31120 | 36150 ft | 460 kts | 309° |
| 2026-05-06 08:35 | 47.58646 | -102.38723 | 36155 ft | 460 kts | 309° |
| 2026-05-06 08:36 | 47.62454 | -102.46325 | 36157 ft | 459 kts | 309° |
| 2026-05-06 08:36 | 47.66262 | -102.53951 | 36156 ft | 459 kts | 309° |
| 2026-05-06 08:37 | 47.70058 | -102.61573 | 36160 ft | 460 kts | 309° |
| 2026-05-06 08:37 | 47.73828 | -102.69164 | 36157 ft | 459 kts | 309° |
| 2026-05-06 08:38 | 47.77633 | -102.76848 | 36163 ft | 459 kts | 309° |
| 2026-05-06 08:38 | 47.81383 | -102.84440 | 36165 ft | 458 kts | 309° |
| 2026-05-06 08:39 | 47.85149 | -102.92088 | 36166 ft | 458 kts | 309° |
| 2026-05-06 08:39 | 47.88908 | -102.99742 | 36166 ft | 458 kts | 309° |
| 2026-05-06 08:40 | 47.92665 | -103.07414 | 36171 ft | 458 kts | 309° |
| 2026-05-06 08:40 | 47.96414 | -103.15089 | 36171 ft | 458 kts | 309° |
| 2026-05-06 08:41 | 48.00153 | -103.22767 | 36179 ft | 457 kts | 309° |
| 2026-05-06 08:41 | 48.03884 | -103.30452 | 36173 ft | 456 kts | 309° |
| 2026-05-06 08:42 | 48.07600 | -103.38123 | 36160 ft | 455 kts | 309° |
| 2026-05-06 08:42 | 48.11302 | -103.45792 | 36145 ft | 454 kts | 309° |
| 2026-05-06 08:43 | 48.14971 | -103.53410 | 36131 ft | 454 kts | 309° |
| 2026-05-06 08:43 | 48.18654 | -103.61080 | 36111 ft | 453 kts | 309° |
| 2026-05-06 08:44 | 48.22329 | -103.68755 | 36104 ft | 453 kts | 309° |
| 2026-05-06 08:44 | 48.26064 | -103.76377 | 36125 ft | 451 kts | 313° |
| 2026-05-06 08:45 | 48.30106 | -103.83607 | 36104 ft | 452 kts | 313° |
| 2026-05-06 08:45 | 48.34118 | -103.90842 | 36119 ft | 450 kts | 313° |
| 2026-05-06 08:46 | 48.38128 | -103.98075 | 36142 ft | 450 kts | 313° |
| 2026-05-06 08:46 | 48.42055 | -104.05184 | 36167 ft | 450 kts | 313° |
| 2026-05-06 08:47 | 48.46050 | -104.12434 | 36198 ft | 450 kts | 313° |
| 2026-05-06 08:47 | 48.50012 | -104.19644 | 36202 ft | 449 kts | 313° |
| 2026-05-06 08:48 | 48.53992 | -104.26908 | 36180 ft | 449 kts | 313° |
| 2026-05-06 08:48 | 48.57967 | -104.34179 | 36167 ft | 449 kts | 313° |
| 2026-05-06 08:49 | 48.61941 | -104.41471 | 36147 ft | 449 kts | 313° |
| 2026-05-06 08:49 | 48.65902 | -104.48760 | 36111 ft | 448 kts | 314° |
| 2026-05-06 08:50 | 48.69852 | -104.56046 | 36122 ft | 447 kts | 313° |
| 2026-05-06 08:50 | 48.73790 | -104.63329 | 36124 ft | 447 kts | 313° |
| 2026-05-06 08:51 | 48.77727 | -104.70631 | 36134 ft | 447 kts | 313° |
| 2026-05-06 08:51 | 48.81652 | -104.77933 | 36151 ft | 446 kts | 313° |
| 2026-05-06 08:52 | 48.85574 | -104.85246 | 36169 ft | 446 kts | 313° |
| 2026-05-06 08:52 | 48.89485 | -104.92561 | 36189 ft | 446 kts | 313° |
| 2026-05-06 08:53 | 48.93393 | -104.99890 | 36205 ft | 446 kts | 313° |
| 2026-05-06 08:53 | 48.97272 | -105.07184 | 36218 ft | 446 kts | 313° |
| 2026-05-06 08:54 | 49.01164 | -105.14525 | 36221 ft | 445 kts | 314° |
| 2026-05-06 08:54 | 49.05038 | -105.21848 | 36219 ft | 443 kts | 314° |
| 2026-05-06 08:55 | 49.08899 | -105.29169 | 36215 ft | 442 kts | 314° |
| 2026-05-06 08:55 | 49.12695 | -105.36387 | 36215 ft | 442 kts | 314° |
| 2026-05-06 08:56 | 49.16539 | -105.43717 | 36215 ft | 441 kts | 314° |
| 2026-05-06 08:56 | 49.20365 | -105.51030 | 36216 ft | 440 kts | 314° |
| 2026-05-06 08:57 | 49.24179 | -105.58341 | 36213 ft | 439 kts | 314° |
| 2026-05-06 08:57 | 49.27988 | -105.65662 | 36211 ft | 439 kts | 314° |
| 2026-05-06 08:58 | 49.31759 | -105.72932 | 36210 ft | 439 kts | 314° |
| 2026-05-06 08:58 | 49.35544 | -105.80256 | 36210 ft | 436 kts | 315° |
| 2026-05-06 08:59 | 49.39300 | -105.87526 | 36209 ft | 434 kts | 315° |
| 2026-05-06 08:59 | 49.43038 | -105.94795 | 36207 ft | 433 kts | 315° |
| 2026-05-06 09:00 | 49.46772 | -106.02071 | 36215 ft | 433 kts | 315° |
| 2026-05-06 09:00 | 49.50495 | -106.09347 | 36213 ft | 433 kts | 315° |
| 2026-05-06 09:01 | 49.54206 | -106.16622 | 36214 ft | 431 kts | 315° |
| 2026-05-06 09:01 | 49.57908 | -106.23892 | 36215 ft | 431 kts | 315° |
| 2026-05-06 09:02 | 49.61601 | -106.31171 | 36215 ft | 431 kts | 315° |
| 2026-05-06 09:02 | 49.65283 | -106.38446 | 36210 ft | 430 kts | 315° |
| 2026-05-06 09:03 | 49.68935 | -106.45690 | 36206 ft | 429 kts | 315° |
| 2026-05-06 09:03 | 49.72585 | -106.52930 | 36204 ft | 426 kts | 315° |
| 2026-05-06 09:04 | 49.76219 | -106.60173 | 36201 ft | 426 kts | 315° |
| 2026-05-06 09:04 | 49.79844 | -106.67415 | 36202 ft | 426 kts | 315° |
| 2026-05-06 09:05 | 49.83468 | -106.74672 | 36201 ft | 426 kts | 315° |
| 2026-05-06 09:05 | 49.87080 | -106.81929 | 36200 ft | 425 kts | 315° |
| 2026-05-06 09:06 | 49.90689 | -106.89197 | 36202 ft | 425 kts | 315° |
| 2026-05-06 09:06 | 49.94292 | -106.96475 | 36201 ft | 425 kts | 315° |
| 2026-05-06 09:07 | 49.97868 | -107.03716 | 36198 ft | 425 kts | 315° |
| 2026-05-06 09:07 | 50.01464 | -107.11019 | 36166 ft | 425 kts | 315° |
| 2026-05-06 09:08 | 50.05051 | -107.18324 | 36203 ft | 425 kts | 315° |
| 2026-05-06 09:08 | 50.08629 | -107.25633 | 36194 ft | 425 kts | 315° |
| 2026-05-06 09:09 | 50.12205 | -107.32955 | 36176 ft | 424 kts | 315° |
| 2026-05-06 09:09 | 50.15771 | -107.40279 | 36153 ft | 424 kts | 315° |
| 2026-05-06 09:10 | 50.18750 | -107.46412 | 36138 ft | 423 kts | 315° |
| 2026-05-06 09:10 | 50.22305 | -107.53749 | 36116 ft | 423 kts | 315° |
| 2026-05-06 09:11 | 50.25828 | -107.61040 | 36101 ft | 424 kts | 315° |
| 2026-05-06 09:11 | 50.29372 | -107.68397 | 36102 ft | 424 kts | 314° |
| 2026-05-06 09:12 | 50.33077 | -107.75506 | 36111 ft | 421 kts | 317° |
| 2026-05-06 09:12 | 50.36790 | -107.82597 | 36197 ft | 420 kts | 316° |
| 2026-05-06 09:13 | 50.40490 | -107.89681 | 36194 ft | 420 kts | 317° |
| 2026-05-06 09:13 | 50.44178 | -107.96756 | 36194 ft | 419 kts | 317° |
| 2026-05-06 09:14 | 50.47857 | -108.03840 | 36197 ft | 418 kts | 317° |
| 2026-05-06 09:14 | 50.51527 | -108.10919 | 36200 ft | 418 kts | 316° |
| 2026-05-06 09:15 | 50.55196 | -108.18020 | 36196 ft | 418 kts | 316° |
| 2026-05-06 09:15 | 50.58857 | -108.25122 | 36199 ft | 418 kts | 316° |
| 2026-05-06 09:16 | 50.62512 | -108.32236 | 36204 ft | 417 kts | 316° |
| 2026-05-06 09:16 | 50.66158 | -108.39349 | 36204 ft | 417 kts | 316° |
| 2026-05-06 09:17 | 50.69791 | -108.46458 | 36206 ft | 416 kts | 316° |
| 2026-05-06 09:17 | 50.73400 | -108.53535 | 36205 ft | 417 kts | 316° |
| 2026-05-06 09:18 | 50.77026 | -108.60668 | 36208 ft | 416 kts | 316° |
| 2026-05-06 09:18 | 50.80645 | -108.67809 | 36204 ft | 416 kts | 316° |
| 2026-05-06 09:19 | 50.84250 | -108.74938 | 36207 ft | 415 kts | 316° |
| 2026-05-06 09:19 | 50.87853 | -108.82084 | 36205 ft | 415 kts | 316° |
| 2026-05-06 09:20 | 50.91452 | -108.89241 | 36203 ft | 415 kts | 316° |
| 2026-05-06 09:20 | 50.95046 | -108.96411 | 36199 ft | 415 kts | 316° |
| 2026-05-06 09:21 | 50.98630 | -109.03579 | 36199 ft | 413 kts | 316° |
| 2026-05-06 09:21 | 51.02186 | -109.10709 | 36198 ft | 412 kts | 316° |
| 2026-05-06 09:22 | 51.05734 | -109.17843 | 36196 ft | 411 kts | 316° |
| 2026-05-06 09:22 | 51.09252 | -109.24938 | 36193 ft | 411 kts | 316° |
| 2026-05-06 09:23 | 51.12785 | -109.32084 | 36184 ft | 410 kts | 316° |
| 2026-05-06 09:23 | 51.16290 | -109.39190 | 36208 ft | 407 kts | 316° |
| 2026-05-06 09:24 | 51.19774 | -109.46272 | 36201 ft | 406 kts | 316° |
| 2026-05-06 09:24 | 51.23246 | -109.53352 | 36204 ft | 405 kts | 316° |
| 2026-05-06 09:25 | 51.26715 | -109.60443 | 36196 ft | 405 kts | 316° |
| 2026-05-06 09:25 | 51.30177 | -109.67541 | 36194 ft | 405 kts | 316° |
| 2026-05-06 09:26 | 51.33635 | -109.74647 | 36199 ft | 404 kts | 316° |
| 2026-05-06 09:26 | 51.37078 | -109.81746 | 36200 ft | 404 kts | 316° |
| 2026-05-06 09:27 | 51.40519 | -109.88857 | 36198 ft | 404 kts | 316° |
| 2026-05-06 09:27 | 51.43952 | -109.95974 | 36200 ft | 404 kts | 315° |
| 2026-05-06 09:28 | 51.47380 | -110.03099 | 36187 ft | 403 kts | 315° |
| 2026-05-06 09:28 | 51.50783 | -110.10191 | 36198 ft | 403 kts | 315° |
| 2026-05-06 09:29 | 51.54182 | -110.17296 | 36200 ft | 401 kts | 315° |
| 2026-05-06 09:29 | 51.57574 | -110.24404 | 36199 ft | 400 kts | 315° |
| 2026-05-06 09:30 | 51.60956 | -110.31510 | 36199 ft | 400 kts | 315° |
| 2026-05-06 09:30 | 51.64337 | -110.38634 | 36206 ft | 400 kts | 315° |
| 2026-05-06 09:31 | 51.67712 | -110.45766 | 36206 ft | 400 kts | 315° |
| 2026-05-06 09:31 | 51.71079 | -110.52901 | 36205 ft | 400 kts | 315° |
| 2026-05-06 09:32 | 51.74404 | -110.59967 | 36205 ft | 400 kts | 315° |
| 2026-05-06 09:32 | 51.77763 | -110.67123 | 36203 ft | 400 kts | 315° |
| 2026-05-06 09:33 | 51.81120 | -110.74296 | 36204 ft | 400 kts | 315° |
| 2026-05-06 09:33 | 51.84469 | -110.81472 | 36206 ft | 400 kts | 315° |
| 2026-05-06 09:34 | 51.87822 | -110.88674 | 36197 ft | 400 kts | 314° |
| 2026-05-06 09:34 | 51.91158 | -110.95859 | 36200 ft | 400 kts | 314° |
| 2026-05-06 09:35 | 51.94495 | -111.03075 | 36199 ft | 400 kts | 314° |
| 2026-05-06 09:35 | 51.97824 | -111.10287 | 36196 ft | 400 kts | 314° |
| 2026-05-06 09:36 | 52.01150 | -111.17514 | 36196 ft | 399 kts | 314° |
| 2026-05-06 09:36 | 52.04449 | -111.24703 | 36196 ft | 399 kts | 314° |
| 2026-05-06 09:37 | 52.07786 | -111.31993 | 36200 ft | 399 kts | 313° |
| 2026-05-06 09:37 | 52.11070 | -111.39191 | 36197 ft | 399 kts | 313° |
| 2026-05-06 09:38 | 52.14375 | -111.46453 | 36196 ft | 399 kts | 313° |
| 2026-05-06 09:38 | 52.17675 | -111.53725 | 36190 ft | 399 kts | 313° |
| 2026-05-06 09:39 | 52.20971 | -111.61010 | 36186 ft | 399 kts | 313° |
| 2026-05-06 09:39 | 52.24261 | -111.68298 | 36182 ft | 399 kts | 313° |
| 2026-05-06 09:40 | 52.27560 | -111.75632 | 36141 ft | 400 kts | 312° |
| 2026-05-06 09:40 | 52.32509 | -111.86675 | 36170 ft | 401 kts | 312° |
| 2026-05-06 09:41 | 52.35805 | -111.94051 | 36169 ft | 401 kts | 312° |
| 2026-05-06 09:41 | 52.39091 | -112.01430 | 36165 ft | 401 kts | 312° |
| 2026-05-06 09:42 | 52.42353 | -112.08772 | 36161 ft | 401 kts | 311° |
| 2026-05-06 09:42 | 52.45637 | -112.16190 | 36150 ft | 402 kts | 311° |
| 2026-05-06 09:43 | 52.48913 | -112.23610 | 36152 ft | 402 kts | 311° |
| 2026-05-06 09:43 | 52.52190 | -112.31051 | 36136 ft | 402 kts | 311° |
| 2026-05-06 09:44 | 52.55459 | -112.38498 | 36137 ft | 402 kts | 311° |
| 2026-05-06 09:44 | 52.58725 | -112.45961 | 36136 ft | 402 kts | 311° |
| 2026-05-06 09:45 | 52.61985 | -112.53429 | 36136 ft | 402 kts | 311° |
| 2026-05-06 09:45 | 52.65245 | -112.60922 | 36084 ft | 402 kts | 310° |